< < Back
Terminal Aerodrome Forecast


Current Version              Previous Versions:   1  2  3  4  5  6  7  8  9  

Terminal Aerodrome Forecast

577
FTUS44 KMOB 232322
TAFMOB
TAF
KMOB 232322Z 2400/2424 15011KT P6SM SCT050
     FM240400 11006KT P6SM FEW060 BKN250
     FM241200 10010KT P6SM BKN050
     FM241800 14015KT P6SM VCTS BKN020CB=

Latest METAR

389
SAUS80 KWBC 240700
MTRMOB
METAR KMOB 240656Z AUTO 11006KT 10SM CLR 23/22 A3014 RMK AO2 SLP202
T02330222 $


USA.gov is the U.S. government's official web portal to all federal, state and local government web resources and services.